createdAt,value
2023-03-10T00:02:49.747Z,0.21
2023-03-10T00:07:52.481Z,0.19
2023-03-10T00:12:56.661Z,0.18
2023-03-10T00:17:59.394Z,0.17
2023-03-10T00:23:02.098Z,0.14
2023-03-10T00:28:04.878Z,0.14
2023-03-10T00:33:07.657Z,0.14
2023-03-10T00:38:10.369Z,0.12
2023-03-10T00:43:13.101Z,0.11
2023-03-10T00:48:16.788Z,0.09
2023-03-10T00:53:19.749Z,0.08
2023-03-10T00:58:22.465Z,0.05
2023-03-10T01:03:27.511Z,0.02
2023-03-10T01:08:30.242Z,0.02
2023-03-10T01:13:33.401Z,-0.01
2023-03-10T01:18:37.881Z,-0.04
2023-03-10T01:23:40.619Z,-0.05
2023-03-10T01:28:43.422Z,-0.07
2023-03-10T01:33:46.884Z,-0.09
2023-03-10T01:38:49.764Z,-0.12
2023-03-10T01:43:55.442Z,-0.13
2023-03-10T01:49:04.903Z,-0.12
2023-03-10T01:54:13.650Z,-0.09
2023-03-10T01:59:17.021Z,-0.03
2023-03-10T02:04:28.129Z,-0.00
2023-03-10T02:09:33.902Z,0.01
2023-03-10T02:14:37.611Z,-0.01
2023-03-10T02:20:02.623Z,-0.06
2023-03-10T02:25:05.405Z,-0.13
2023-03-10T02:30:26.133Z,-0.19
2023-03-10T02:35:29.311Z,-0.25
2023-03-10T02:40:45.333Z,-0.29
2023-03-10T02:45:50.302Z,-0.27
2023-03-10T02:50:55.218Z,-0.28
2023-03-10T02:55:59.822Z,-0.30
2023-03-10T03:01:06.661Z,-0.34
2023-03-10T03:06:10.389Z,-0.39
2023-03-10T03:11:14.222Z,-0.43
2023-03-10T03:16:17.014Z,-0.46
2023-03-10T03:21:21.373Z,-0.48
2023-03-10T03:26:26.927Z,-0.45
2023-03-10T03:31:29.691Z,-0.42
2023-03-10T03:36:33.769Z,-0.38
2023-03-10T03:41:36.581Z,-0.40
2023-03-10T03:46:39.328Z,-0.46
2023-03-10T03:51:42.030Z,-0.53
2023-03-10T03:56:44.783Z,-0.59
2023-03-10T04:01:47.480Z,-0.58
2023-03-10T04:06:50.216Z,-0.56
2023-03-10T04:11:53.461Z,-0.55
2023-03-10T04:16:56.198Z,-0.56
2023-03-10T04:21:58.931Z,-0.62
2023-03-10T04:27:02.041Z,-0.67
2023-03-10T04:32:06.051Z,-0.72
2023-03-10T04:37:08.970Z,-0.72
2023-03-10T04:42:11.703Z,-0.70
2023-03-10T04:47:14.667Z,-0.69
2023-03-10T04:52:17.382Z,-0.70
2023-03-10T04:57:20.319Z,-0.74
2023-03-10T05:02:23.037Z,-0.79
2023-03-10T05:07:25.812Z,-0.81
2023-03-10T05:12:28.515Z,-0.84
2023-03-10T05:17:31.286Z,-0.86
2023-03-10T05:22:34.026Z,-0.89
2023-03-10T05:27:39.420Z,-0.93
2023-03-10T05:32:44.003Z,-0.93
2023-03-10T05:37:46.884Z,-0.92
2023-03-10T05:42:50.968Z,-0.87
2023-03-10T05:47:53.663Z,-0.89
2023-03-10T05:52:58.543Z,-0.91
2023-03-10T05:58:01.339Z,-0.87
2023-03-10T06:03:04.619Z,-0.83
2023-03-10T06:08:07.444Z,-0.80
2023-03-10T06:13:10.160Z,-0.79
2023-03-10T06:18:12.868Z,-0.78
2023-03-10T06:23:18.537Z,-0.73
2023-03-10T06:28:21.425Z,-0.67
2023-03-10T06:33:25.488Z,-0.67
2023-03-10T06:38:28.533Z,-0.68
2023-03-10T06:43:33.964Z,-0.67
2023-03-10T06:48:38.071Z,-0.58
2023-03-10T06:53:44.033Z,-0.49
2023-03-10T06:58:48.557Z,-0.46
2023-03-10T07:03:51.964Z,-0.46
2023-03-10T07:08:55.196Z,-0.45
2023-03-10T07:13:58.551Z,-0.37
2023-03-10T07:19:01.840Z,-0.27
2023-03-10T07:24:05.152Z,-0.18
2023-03-10T07:29:10.408Z,-0.18
2023-03-10T07:34:13.987Z,-0.18
2023-03-10T07:39:16.843Z,-0.11
2023-03-10T07:44:20.695Z,-0.03
2023-03-10T07:49:23.470Z,0.02
2023-03-10T07:54:26.225Z,0.07
2023-03-10T07:59:29.840Z,0.12
2023-03-10T08:04:32.985Z,0.14
2023-03-10T08:09:37.286Z,0.17
2023-03-10T08:14:42.459Z,0.20
2023-03-10T08:19:45.463Z,0.29
2023-03-10T08:24:48.420Z,0.40
2023-03-10T08:38:55.498Z,0.56
2023-03-10T08:44:00.336Z,0.57
2023-03-10T08:54:51.495Z,0.65
2023-03-10T08:59:54.373Z,0.73
2023-03-10T09:04:58.894Z,0.86
2023-03-10T09:10:02.041Z,0.85
2023-03-10T09:15:05.483Z,0.78
2023-03-10T09:20:11.287Z,0.79
2023-03-10T09:25:14.256Z,0.88
2023-03-10T09:30:19.834Z,0.92
2023-03-10T09:35:24.019Z,1.04
2023-03-10T09:40:27.782Z,1.22
2023-03-10T09:45:32.743Z,1.38
2023-03-10T09:50:51.076Z,1.63
2023-03-10T09:55:56.427Z,1.87
2023-03-10T10:01:00.954Z,2.00
2023-03-10T10:06:07.015Z,2.06
2023-03-10T10:11:15.338Z,2.04
2023-03-10T10:16:41.563Z,1.90
2023-03-10T10:22:00.023Z,1.82
2023-03-10T10:27:02.944Z,1.93
2023-03-10T10:32:14.357Z,1.95
2023-03-10T10:37:43.153Z,1.94
2023-03-10T10:42:54.023Z,1.83
2023-03-10T10:47:59.511Z,1.72
2023-03-10T10:53:37.748Z,1.75
2023-03-10T10:58:46.687Z,1.85
2023-03-10T11:04:04.905Z,1.91
2023-03-10T11:09:14.160Z,2.06
2023-03-10T11:14:49.894Z,2.20
2023-03-10T11:20:17.852Z,2.26
2023-03-10T11:25:44.344Z,2.27
2023-03-10T11:31:13.826Z,2.42
2023-03-10T11:36:22.188Z,2.57
2023-03-10T11:41:30.905Z,2.62
2023-03-10T11:46:47.315Z,2.71
2023-03-10T11:51:57.153Z,2.71
2023-03-10T11:57:03.677Z,2.73
2023-03-10T12:02:17.093Z,2.79
2023-03-10T12:07:24.279Z,2.95
2023-03-10T12:12:38.233Z,3.03
2023-03-10T12:17:42.283Z,2.99
2023-03-10T12:22:51.533Z,2.86
2023-03-10T12:28:15.816Z,2.88
2023-03-10T12:33:30.373Z,3.12
2023-03-10T12:38:43.426Z,3.32
2023-03-10T12:43:56.729Z,3.41
2023-03-10T12:49:22.911Z,3.45
2023-03-10T12:54:28.410Z,3.49
2023-03-10T12:59:42.306Z,3.53
2023-03-10T13:04:45.493Z,3.53
2023-03-10T13:09:50.107Z,3.44
2023-03-10T13:14:57.205Z,3.38
2023-03-10T13:20:09.284Z,3.36
2023-03-10T13:25:14.861Z,3.36
2023-03-10T13:30:21.425Z,3.29
2023-03-10T13:35:38.174Z,3.20
2023-03-10T13:40:51.839Z,3.11
2023-03-10T13:46:02.431Z,3.07
2023-03-10T13:51:08.180Z,3.11
2023-03-10T13:56:28.621Z,3.20
2023-03-10T14:01:35.030Z,3.28
2023-03-10T14:06:38.248Z,3.31
2023-03-10T14:11:44.997Z,3.34
2023-03-10T14:16:49.754Z,3.36
2023-03-10T14:22:01.658Z,3.36
2023-03-10T14:27:10.420Z,3.33
2023-03-10T14:32:13.809Z,3.31
2023-03-10T14:37:16.758Z,3.34
2023-03-10T14:42:26.964Z,3.42
2023-03-10T14:47:29.979Z,3.42
2023-03-10T14:52:32.996Z,3.38
2023-03-10T14:57:36.974Z,3.34
2023-03-10T15:02:39.805Z,3.28
2023-03-10T15:07:44.722Z,3.21
2023-03-10T15:12:50.180Z,3.09
2023-03-10T15:17:53.304Z,3.03
2023-03-10T15:22:56.228Z,2.99
2023-03-10T15:27:58.992Z,3.00
2023-03-10T15:33:02.522Z,2.97
2023-03-10T15:38:05.261Z,2.88
2023-03-10T15:43:08.888Z,2.79
2023-03-10T15:48:11.680Z,2.73
2023-03-10T15:53:15.154Z,2.70
2023-03-10T15:58:18.733Z,2.70
2023-03-10T16:03:21.464Z,2.70
2023-03-10T16:08:24.402Z,2.66
2023-03-10T16:13:27.201Z,2.61
2023-03-10T16:18:30.066Z,2.53
2023-03-10T16:23:34.253Z,2.44
2023-03-10T16:28:39.854Z,2.39
2023-03-10T16:33:43.122Z,2.38
2023-03-10T16:38:46.594Z,2.36
2023-03-10T16:43:49.771Z,2.35
2023-03-10T16:48:54.570Z,2.32
2023-03-10T16:53:59.929Z,2.27
2023-03-10T16:59:02.673Z,2.26
2023-03-10T17:04:05.449Z,2.31
2023-03-10T17:09:10.917Z,2.36
2023-03-10T17:14:15.988Z,2.37
2023-03-10T17:19:21.382Z,2.29
2023-03-10T17:24:24.930Z,2.23
2023-03-10T17:29:28.026Z,2.21
2023-03-10T17:34:30.896Z,2.25
2023-03-10T17:39:35.340Z,2.28
2023-03-10T17:44:38.325Z,2.27
2023-03-10T17:49:41.160Z,2.23
2023-03-10T17:54:43.946Z,2.19
2023-03-10T17:59:46.643Z,2.18
2023-03-10T18:04:49.448Z,2.23
2023-03-10T18:09:52.487Z,2.31
2023-03-10T18:14:55.260Z,2.30
2023-03-10T18:19:58.695Z,2.30
2023-03-10T18:25:01.697Z,2.28
2023-03-10T18:30:06.915Z,2.25
2023-03-10T18:35:11.390Z,2.25
2023-03-10T18:40:16.256Z,2.25
2023-03-10T18:45:19.058Z,2.21
2023-03-10T18:50:21.876Z,2.21
2023-03-10T18:55:24.646Z,2.18
2023-03-10T19:00:27.762Z,2.16
2023-03-10T19:05:30.904Z,2.14
2023-03-10T19:10:33.967Z,2.17
2023-03-10T19:15:37.813Z,2.21
2023-03-10T19:20:40.631Z,2.20
2023-03-10T19:25:43.729Z,2.19
2023-03-10T19:30:46.463Z,2.19
2023-03-10T19:35:50.431Z,2.17
2023-03-10T19:40:53.189Z,2.15
2023-03-10T19:46:03.984Z,2.14
2023-03-10T19:51:07.686Z,2.15
2023-03-10T19:56:10.872Z,2.11
2023-03-10T20:01:15.943Z,2.11
2023-03-10T20:06:19.014Z,2.14
2023-03-10T20:11:21.861Z,2.21
2023-03-10T20:16:27.802Z,2.26
2023-03-10T20:21:31.185Z,2.21
2023-03-10T20:26:34.884Z,2.18
2023-03-10T20:31:37.681Z,2.18
2023-03-10T20:36:40.464Z,2.21
2023-03-10T20:41:44.987Z,2.22
2023-03-10T20:46:47.987Z,2.23
2023-03-10T20:51:50.890Z,2.19
2023-03-10T20:56:54.171Z,2.13
2023-03-10T21:01:56.880Z,2.14
2023-03-10T21:06:59.765Z,2.17
2023-03-10T21:12:03.383Z,2.23
2023-03-10T21:17:07.343Z,2.28
2023-03-10T21:22:10.543Z,2.24
2023-03-10T21:27:13.335Z,2.22
2023-03-10T21:32:16.065Z,2.21
2023-03-10T21:37:19.237Z,2.17
2023-03-10T21:42:22.034Z,2.14
2023-03-10T21:47:24.744Z,2.16
2023-03-10T21:52:27.638Z,2.14
2023-03-10T21:57:30.370Z,2.10
2023-03-10T22:02:35.677Z,2.11
2023-03-10T22:07:39.420Z,2.16
2023-03-10T22:12:42.224Z,2.16
2023-03-10T22:17:46.335Z,2.15
2023-03-10T22:22:49.368Z,2.13
2023-03-10T22:27:54.577Z,2.07
2023-03-10T22:32:57.834Z,2.06
2023-03-10T22:38:00.580Z,2.09
2023-03-10T22:43:03.463Z,2.12
2023-03-10T22:48:06.596Z,2.14
2023-03-10T22:53:15.166Z,2.13
2023-03-10T22:58:17.924Z,2.13
2023-03-10T23:03:20.871Z,2.16
2023-03-10T23:08:23.992Z,2.17
2023-03-10T23:13:26.793Z,2.22
2023-03-10T23:18:29.596Z,2.24
2023-03-10T23:23:33.832Z,2.21
2023-03-10T23:28:36.825Z,2.18
2023-03-10T23:33:39.642Z,2.17
2023-03-10T23:38:42.451Z,2.21
2023-03-10T23:43:45.183Z,2.24
2023-03-10T23:48:51.277Z,2.26
2023-03-10T23:53:54.004Z,2.24
2023-03-10T23:58:58.909Z,2.19
